Time;durP1;ratioP1;P1;durP2;ratioP2;P2;SDS_P1;SDS_P2;PMS_P1;PMS_P2;Temp;Humidity;BMP_temperature;BMP_pressure;BME280_temperature;BME280_humidity;BME280_pressure;Samples;Min_cycle;Max_cycle;Signal;HPM_P1;HPM_P2
2021/01/30 00:00:57;;;;;;;3.90;1.30;;;8.50;99.80;;;;;;5038385;28;21059;-81
2021/01/30 00:03:24;;;;;;;3.83;2.38;;;8.40;99.80;;;;;;5025672;28;20224;-81
2021/01/30 00:05:52;;;;;;;2.15;1.58;;;8.40;99.80;;;;;;5025922;28;20225;-80
2021/01/30 00:08:18;;;;;;;4.40;1.58;;;8.40;99.80;;;;;;5017997;28;20245;-82
2021/01/30 00:10:47;;;;;;;3.17;1.40;;;8.40;99.80;;;;;;5032850;28;20336;-80
2021/01/30 00:13:16;;;;;;;2.40;1.60;;;8.30;99.80;;;;;;5001866;28;20240;-79
2021/01/30 00:15:43;;;;;;;1.92;1.25;;;8.30;99.80;;;;;;5016910;28;20226;-80
2021/01/30 00:18:10;;;;;;;2.70;1.80;;;8.30;99.80;;;;;;5025115;28;20242;-80
2021/01/30 00:20:39;;;;;;;2.65;1.73;;;8.20;99.80;;;;;;5013626;28;20225;-83
2021/01/30 00:23:08;;;;;;;3.75;1.35;;;8.30;99.80;;;;;;5012781;28;20243;-79
2021/01/30 00:25:37;;;;;;;4.40;1.55;;;8.30;99.80;;;;;;5010110;28;20298;-79
2021/01/30 00:28:05;;;;;;;3.35;1.60;;;8.30;99.80;;;;;;5001640;28;20224;-81
2021/01/30 00:30:34;;;;;;;2.38;1.77;;;8.30;99.80;;;;;;5026902;28;20728;-82
2021/01/30 00:33:03;;;;;;;3.15;1.50;;;8.30;99.80;;;;;;5028665;28;20669;-83
2021/01/30 00:35:32;;;;;;;3.15;1.40;;;8.30;99.80;;;;;;5024285;28;20241;-82
2021/01/30 00:38:00;;;;;;;5.60;1.90;;;8.30;99.80;;;;;;5028524;28;20386;-82
2021/01/30 00:40:28;;;;;;;2.95;2.65;;;8.40;99.80;;;;;;5013038;28;20770;-84
2021/01/30 00:42:56;;;;;;;4.43;1.70;;;8.40;99.80;;;;;;5022606;28;20227;-84
2021/01/30 00:45:25;;;;;;;5.57;2.15;;;8.40;99.80;;;;;;5021904;28;20706;-82
2021/01/30 00:47:53;;;;;;;4.85;2.25;;;8.40;99.80;;;;;;5027080;28;20296;-84
2021/01/30 00:50:21;;;;;;;6.82;1.55;;;8.30;99.80;;;;;;5021793;28;20228;-83
2021/01/30 00:52:48;;;;;;;2.75;2.10;;;8.30;99.80;;;;;;4987289;28;20225;-83
2021/01/30 00:55:18;;;;;;;4.65;1.83;;;8.20;99.80;;;;;;5004430;28;20241;-82
2021/01/30 00:57:45;;;;;;;2.03;1.83;;;8.20;99.80;;;;;;5000899;28;20246;-82
2021/01/30 01:00:15;;;;;;;4.22;1.90;;;8.20;99.80;;;;;;5008664;28;20252;-82
2021/01/30 01:02:42;;;;;;;2.20;1.90;;;8.30;99.80;;;;;;4996756;28;20238;-82
2021/01/30 01:05:13;;;;;;;3.13;1.60;;;8.30;99.80;;;;;;4996081;28;20252;-85
2021/01/30 01:07:43;;;;;;;3.72;2.25;;;8.30;99.80;;;;;;5015253;28;20323;-81
2021/01/30 01:10:11;;;;;;;4.13;2.05;;;8.30;99.80;;;;;;5015549;28;25123;-82
2021/01/30 01:12:38;;;;;;;3.50;2.00;;;8.30;99.80;;;;;;5007682;28;20288;-84
2021/01/30 01:15:08;;;;;;;3.03;1.90;;;8.20;99.80;;;;;;5023325;28;20263;-82
2021/01/30 01:17:35;;;;;;;4.60;2.00;;;8.20;99.80;;;;;;5030608;28;20653;-82
2021/01/30 01:20:04;;;;;;;3.70;1.65;;;8.20;99.80;;;;;;5030701;28;20236;-83
2021/01/30 01:22:32;;;;;;;2.10;1.90;;;8.20;99.80;;;;;;4996408;28;20323;-83
2021/01/30 01:24:59;;;;;;;2.67;1.65;;;8.20;99.80;;;;;;5004425;28;20250;-83
2021/01/30 01:27:26;;;;;;;3.85;1.95;;;8.20;99.80;;;;;;5008191;28;20233;-84
2021/01/30 01:29:53;;;;;;;5.18;2.28;;;8.20;99.80;;;;;;5009713;28;20230;-84
2021/01/30 01:32:23;;;;;;;4.05;2.17;;;8.30;99.80;;;;;;5023373;28;20666;-81
2021/01/30 01:34:50;;;;;;;2.85;2.00;;;8.30;99.80;;;;;;4989356;28;20268;-82
2021/01/30 01:37:17;;;;;;;2.30;2.05;;;8.20;99.80;;;;;;5019664;28;20238;-83
2021/01/30 01:39:45;;;;;;;3.55;1.90;;;8.20;99.80;;;;;;5006261;28;20327;-82
2021/01/30 01:42:15;;;;;;;4.00;2.05;;;8.20;99.80;;;;;;5013658;28;20848;-83
2021/01/30 01:44:43;;;;;;;6.88;2.50;;;8.20;99.80;;;;;;5003781;28;20340;-84
2021/01/30 01:47:16;;;;;;;2.85;2.00;;;8.20;99.80;;;;;;5023661;28;20230;-83
2021/01/30 01:49:44;;;;;;;5.63;2.33;;;8.20;99.80;;;;;;5025857;28;20229;-80
2021/01/30 01:52:24;;;;;;;4.20;2.60;;;8.20;99.80;;;;;;5023194;28;20304;-83
2021/01/30 01:54:56;;;;;;;5.07;2.20;;;8.20;99.80;;;;;;5008735;28;20240;-81
2021/01/30 01:57:24;;;;;;;4.20;1.70;;;8.20;99.80;;;;;;5003167;28;20235;-83
2021/01/30 01:59:54;;;;;;;4.53;1.95;;;8.20;99.80;;;;;;5014524;28;20228;-81
2021/01/30 02:02:22;;;;;;;2.30;2.10;;;8.20;99.80;;;;;;5025990;28;20228;-83
2021/01/30 02:04:58;;;;;;;1.95;1.75;;;8.20;99.80;;;;;;5015799;28;20247;-82
2021/01/30 02:07:25;;;;;;;3.20;2.17;;;8.20;99.80;;;;;;4998968;28;22437;-84
2021/01/30 02:09:54;;;;;;;3.17;1.87;;;8.20;99.80;;;;;;4995452;28;20455;-81
2021/01/30 02:12:24;;;;;;;3.13;2.22;;;8.20;99.80;;;;;;5010103;28;21236;-83
2021/01/30 02:14:52;;;;;;;4.28;2.38;;;8.20;99.80;;;;;;5012855;28;20244;-82
2021/01/30 02:17:37;;;;;;;2.00;1.90;;;8.20;99.80;;;;;;5023005;28;20225;-84
2021/01/30 02:20:38;;;;;;;4.32;1.92;;;8.20;99.80;;;;;;5025989;28;20517;-82
2021/01/30 02:23:48;;;;;;;3.45;2.10;;;8.20;99.80;;;;;;5028246;28;20224;-84
2021/01/30 02:26:34;;;;;;;2.80;2.00;;;8.20;99.80;;;;;;5022912;28;20299;-82
2021/01/30 02:29:22;;;;;;;4.07;1.88;;;8.20;99.80;;;;;;5013837;28;20486;-81
2021/01/30 02:32:07;;;;;;;6.05;2.33;;;8.20;99.80;;;;;;5035782;28;20266;-82
2021/01/30 02:34:52;;;;;;;5.07;2.30;;;8.20;99.80;;;;;;5020320;28;20574;-84
2021/01/30 02:37:24;;;;;;;2.88;1.70;;;8.20;99.80;;;;;;5003856;28;20228;-83
2021/01/30 02:39:55;;;;;;;3.47;2.20;;;8.10;99.80;;;;;;5029788;28;20255;-84
2021/01/30 02:42:26;;;;;;;3.83;2.05;;;8.10;99.80;;;;;;5012991;28;20234;-83
2021/01/30 02:44:59;;;;;;;4.10;1.80;;;8.10;99.80;;;;;;5012521;28;20228;-82
2021/01/30 02:47:30;;;;;;;4.73;1.87;;;8.00;99.80;;;;;;5036535;28;20712;-81
2021/01/30 02:50:03;;;;;;;6.05;2.67;;;8.00;99.80;;;;;;5027369;28;20487;-82
2021/01/30 02:52:31;;;;;;;5.63;2.00;;;8.00;99.80;;;;;;5027713;28;20226;-85
2021/01/30 02:54:59;;;;;;;3.03;2.03;;;8.00;99.80;;;;;;5026408;28;20234;-81
2021/01/30 02:57:29;;;;;;;4.90;2.00;;;7.90;99.80;;;;;;5027768;28;20247;-81
2021/01/30 03:00:00;;;;;;;3.28;1.55;;;8.00;99.80;;;;;;5029443;28;20228;-82
2021/01/30 03:02:29;;;;;;;2.78;1.55;;;8.00;99.80;;;;;;5031950;28;20205;-82
2021/01/30 03:04:59;;;;;;;2.10;1.90;;;7.90;99.80;;;;;;5036200;28;20212;-81
2021/01/30 03:07:47;;;;;;;1.75;1.35;;;7.80;99.80;;;;;;5032703;28;20293;-82
2021/01/30 03:10:22;;;;;;;1.83;1.30;;;7.80;99.80;;;;;;5034481;28;20221;-83
2021/01/30 03:12:58;;;;;;;1.55;1.20;;;7.80;99.80;;;;;;5024481;28;20327;-80
2021/01/30 03:15:31;;;;;;;2.10;1.52;;;7.70;99.80;;;;;;5026939;28;20244;-80
2021/01/30 03:18:00;;;;;;;3.30;2.03;;;7.70;99.80;;;;;;5026938;28;20229;-82
2021/01/30 03:20:30;;;;;;;2.63;1.30;;;7.70;99.80;;;;;;5025456;28;20237;-81
2021/01/30 03:23:01;;;;;;;2.63;1.60;;;7.70;99.80;;;;;;5024578;28;20256;-82
2021/01/30 03:25:29;;;;;;;3.42;1.48;;;7.70;99.80;;;;;;5016665;28;20231;-83
2021/01/30 03:27:58;;;;;;;6.70;1.70;;;7.70;99.80;;;;;;5015448;28;20232;-83
2021/01/30 03:30:25;;;;;;;4.05;1.80;;;7.60;99.80;;;;;;5014767;28;20718;-83
2021/01/30 03:32:54;;;;;;;5.85;2.25;;;7.60;99.80;;;;;;5027918;28;20230;-81
2021/01/30 03:35:22;;;;;;;2.47;1.70;;;7.60;99.80;;;;;;5022412;28;20649;-82
2021/01/30 03:37:49;;;;;;;4.47;1.70;;;7.60;99.80;;;;;;4999505;28;20608;-85
2021/01/30 03:40:19;;;;;;;3.15;1.55;;;7.60;99.80;;;;;;5020714;28;20231;-82
2021/01/30 03:42:46;;;;;;;3.38;1.77;;;7.60;99.80;;;;;;5007673;28;20239;-80
2021/01/30 03:45:16;;;;;;;3.03;1.65;;;7.60;99.80;;;;;;5025585;28;20311;-84
2021/01/30 03:47:44;;;;;;;3.15;1.80;;;7.60;99.80;;;;;;4999306;28;20319;-84
2021/01/30 03:50:12;;;;;;;5.32;1.60;;;7.50;99.80;;;;;;4998843;28;20239;-82
2021/01/30 03:52:40;;;;;;;4.32;1.40;;;7.40;99.80;;;;;;5015098;28;20228;-83
2021/01/30 03:55:09;;;;;;;3.70;1.55;;;7.40;99.80;;;;;;5005783;28;20320;-86
2021/01/30 03:57:37;;;;;;;4.50;1.50;;;7.40;99.80;;;;;;5009262;28;20320;-82
2021/01/30 04:00:07;;;;;;;3.28;1.38;;;7.50;99.80;;;;;;5021531;28;20236;-81
2021/01/30 04:02:34;;;;;;;2.45;1.58;;;7.40;99.80;;;;;;5035568;28;20673;-81
2021/01/30 04:05:02;;;;;;;6.05;1.63;;;7.40;99.80;;;;;;5025915;28;20294;-83
2021/01/30 04:07:29;;;;;;;2.25;1.60;;;7.30;99.80;;;;;;5001089;28;20226;-83
2021/01/30 04:09:55;;;;;;;2.38;1.58;;;7.30;99.80;;;;;;5013001;28;20246;-83
2021/01/30 04:12:22;;;;;;;2.70;1.75;;;7.20;99.80;;;;;;5000040;28;20471;-83
2021/01/30 04:14:51;;;;;;;2.75;1.42;;;7.20;99.80;;;;;;5024585;28;20226;-84
2021/01/30 04:17:18;;;;;;;2.25;1.45;;;7.10;99.80;;;;;;5017076;28;20235;-82
2021/01/30 04:19:45;;;;;;;3.72;2.47;;;7.10;99.80;;;;;;5000133;28;20286;-82
2021/01/30 04:22:12;;;;;;;5.43;1.52;;;7.10;99.80;;;;;;5016212;28;20232;-87
2021/01/30 04:24:44;;;;;;;3.35;2.20;;;7.20;99.80;;;;;;5007852;28;20375;-82
2021/01/30 04:27:13;;;;;;;5.68;2.30;;;7.30;99.80;;;;;;5008370;28;20227;-81
2021/01/30 04:29:40;;;;;;;2.10;1.50;;;7.30;99.80;;;;;;5015845;28;20244;-84
2021/01/30 04:32:07;;;;;;;3.08;1.75;;;7.30;99.80;;;;;;5032894;28;20263;-84
2021/01/30 04:34:35;;;;;;;4.32;1.85;;;7.30;99.80;;;;;;5028832;28;20244;-84
2021/01/30 04:37:02;;;;;;;2.75;1.98;;;7.30;99.80;;;;;;5018180;28;20226;-84
2021/01/30 04:39:29;;;;;;;1.60;1.50;;;7.30;99.80;;;;;;5018023;28;20232;-83
2021/01/30 04:42:01;;;;;;;4.38;1.65;;;7.30;99.80;;;;;;5011683;28;20241;-82
2021/01/30 04:44:35;;;;;;;1.67;1.50;;;7.30;99.80;;;;;;4994723;28;20221;-81
2021/01/30 04:47:20;;;;;;;3.88;1.77;;;7.30;99.80;;;;;;5034477;28;20225;-83
2021/01/30 04:49:54;;;;;;;1.50;1.38;;;7.30;99.80;;;;;;5024106;28;20243;-82
2021/01/30 04:52:36;;;;;;;2.95;1.40;;;7.30;99.80;;;;;;4988819;28;20235;-82
2021/01/30 04:55:23;;;;;;;3.33;1.60;;;7.30;99.80;;;;;;5014912;28;20257;-84
2021/01/30 04:58:00;;;;;;;3.83;1.50;;;7.30;99.80;;;;;;5002573;28;20252;-82
2021/01/30 05:00:46;;;;;;;1.40;1.30;;;7.20;99.80;;;;;;5021784;28;20229;-83
2021/01/30 05:03:35;;;;;;;3.92;1.70;;;7.20;99.80;;;;;;5024812;28;20232;-82
2021/01/30 05:06:11;;;;;;;4.13;1.40;;;7.20;99.80;;;;;;5028340;28;20221;-82
2021/01/30 05:08:44;;;;;;;1.40;1.25;;;7.20;99.80;;;;;;5021929;28;20244;-82
2021/01/30 05:11:15;;;;;;;3.63;1.40;;;7.20;99.80;;;;;;5014617;28;20321;-82
2021/01/30 05:13:47;;;;;;;5.28;1.83;;;7.20;99.80;;;;;;5000378;28;20247;-84
2021/01/30 05:16:20;;;;;;;1.33;1.20;;;7.30;99.80;;;;;;5033722;28;20227;-83
2021/01/30 05:18:53;;;;;;;3.78;1.50;;;7.30;99.80;;;;;;5027551;28;20264;-85
2021/01/30 05:21:24;;;;;;;3.90;1.30;;;7.30;99.80;;;;;;5021978;28;20229;-82
2021/01/30 05:23:53;;;;;;;1.45;1.20;;;7.30;99.80;;;;;;5002111;28;20234;-82
2021/01/30 05:26:27;;;;;;;3.15;1.30;;;7.30;99.80;;;;;;5002845;28;20232;-82
2021/01/30 05:29:05;;;;;;;3.67;1.35;;;7.30;99.80;;;;;;4999941;28;20232;-82
2021/01/30 05:31:43;;;;;;;2.40;1.20;;;7.30;99.80;;;;;;5023018;28;20239;-82
2021/01/30 05:34:13;;;;;;;5.43;1.63;;;7.30;99.80;;;;;;4994223;28;20283;-83
2021/01/30 05:36:48;;;;;;;2.92;1.60;;;7.30;99.80;;;;;;5001543;28;20332;-81
2021/01/30 05:39:36;;;;;;;8.52;1.58;;;7.30;99.80;;;;;;5008575;28;20239;-84
2021/01/30 05:42:09;;;;;;;1.80;1.17;;;7.30;99.80;;;;;;4996830;28;20284;-81
2021/01/30 05:44:44;;;;;;;1.50;1.40;;;7.30;99.80;;;;;;4998027;28;20230;-83
2021/01/30 05:47:15;;;;;;;1.75;1.48;;;7.20;99.80;;;;;;5023199;28;20221;-82
2021/01/30 05:49:55;;;;;;;5.95;1.58;;;7.20;99.80;;;;;;5031344;28;20224;-84
2021/01/30 05:52:28;;;;;;;1.30;1.20;;;7.20;99.80;;;;;;5015259;28;20235;-83
2021/01/30 05:54:55;;;;;;;4.30;1.45;;;7.20;99.80;;;;;;5016554;28;20496;-82
2021/01/30 05:57:23;;;;;;;1.65;1.55;;;7.30;99.80;;;;;;4988311;28;20228;-83
2021/01/30 05:59:53;;;;;;;7.20;1.52;;;7.20;99.80;;;;;;4999836;28;20259;-83
2021/01/30 06:02:23;;;;;;;1.63;1.30;;;7.20;99.80;;;;;;5025921;28;20224;-86
2021/01/30 06:04:51;;;;;;;2.03;1.48;;;7.30;99.80;;;;;;4983254;28;20686;-83
2021/01/30 06:07:31;;;;;;;2.03;1.73;;;7.20;99.80;;;;;;4981157;28;20244;-83
2021/01/30 06:10:04;;;;;;;3.55;1.13;;;7.30;99.80;;;;;;5002168;28;20246;-84
2021/01/30 06:12:36;;;;;;;3.63;1.40;;;7.30;99.80;;;;;;5003181;28;20232;-82
2021/01/30 06:15:10;;;;;;;2.47;1.67;;;7.30;99.80;;;;;;5018627;28;20257;-84
2021/01/30 06:17:37;;;;;;;2.10;1.10;;;7.30;99.80;;;;;;5024901;28;20224;-82
2021/01/30 06:20:18;;;;;;;2.70;1.60;;;7.30;99.80;;;;;;5027020;28;22458;-83
2021/01/30 06:22:45;;;;;;;3.58;1.73;;;7.30;99.80;;;;;;5019881;28;20284;-83
2021/01/30 06:25:25;;;;;;;3.67;1.50;;;7.30;99.80;;;;;;5016691;28;20958;-82
2021/01/30 06:27:57;;;;;;;2.10;1.90;;;7.30;99.80;;;;;;5011246;28;20774;-85
2021/01/30 06:30:32;;;;;;;1.70;1.40;;;7.30;99.80;;;;;;5009367;28;20321;-83
2021/01/30 06:33:04;;;;;;;2.40;1.50;;;7.40;99.80;;;;;;5018045;28;20251;-82
2021/01/30 06:35:39;;;;;;;1.80;1.20;;;7.30;99.80;;;;;;5011486;28;20228;-84
2021/01/30 06:38:13;;;;;;;1.90;1.58;;;7.30;99.80;;;;;;5004643;28;20223;-79
2021/01/30 06:40:52;;;;;;;2.72;1.95;;;7.30;99.80;;;;;;5009118;28;20235;-82
2021/01/30 06:43:27;;;;;;;2.72;1.30;;;7.20;99.80;;;;;;5006000;28;20216;-84
2021/01/30 06:46:05;;;;;;;5.53;1.88;;;7.10;99.80;;;;;;5032735;28;20236;-85
2021/01/30 06:48:34;;;;;;;7.28;3.78;;;7.10;99.80;;;;;;5025107;28;20240;-81
2021/01/30 06:51:03;;;;;;;3.05;2.03;;;7.10;99.80;;;;;;5029502;28;20237;-84
2021/01/30 06:53:32;;;;;;;2.58;2.05;;;7.10;99.80;;;;;;5023779;28;20260;-84
2021/01/30 06:56:13;;;;;;;2.83;2.40;;;7.10;99.80;;;;;;5024407;28;20237;-81
2021/01/30 06:58:42;;;;;;;2.30;2.08;;;7.00;99.80;;;;;;4991464;28;20241;-81
2021/01/30 07:01:12;;;;;;;2.90;2.70;;;7.00;99.80;;;;;;5040738;28;20240;-82
2021/01/30 07:04:02;;;;;;;2.53;2.30;;;7.00;99.80;;;;;;5023419;28;20221;-81
2021/01/30 07:06:37;;;;;;;3.20;2.42;;;6.90;99.80;;;;;;5014870;28;20225;-82
2021/01/30 07:09:21;;;;;;;3.30;2.17;;;6.90;99.80;;;;;;5008614;28;20695;-84
2021/01/30 07:11:54;;;;;;;2.42;2.22;;;6.90;99.80;;;;;;4999729;28;20228;-82
2021/01/30 07:14:36;;;;;;;2.28;1.80;;;6.90;99.80;;;;;;5007495;28;20316;-79
2021/01/30 07:17:11;;;;;;;3.00;1.98;;;6.90;99.80;;;;;;5035328;28;20263;-78
2021/01/30 07:19:51;;;;;;;3.22;2.75;;;6.90;99.80;;;;;;5029551;28;20233;-83
2021/01/30 07:22:25;;;;;;;3.72;2.05;;;6.90;99.80;;;;;;5027867;28;20231;-83
2021/01/30 07:25:00;;;;;;;3.95;2.40;;;6.90;99.80;;;;;;5024594;28;20274;-81
2021/01/30 07:27:34;;;;;;;2.92;2.00;;;6.90;99.80;;;;;;5016615;28;20234;-81
2021/01/30 07:30:06;;;;;;;2.75;2.45;;;6.90;99.80;;;;;;5013641;28;20314;-81
2021/01/30 07:32:36;;;;;;;3.88;2.53;;;6.90;99.80;;;;;;5034616;28;20304;-83
2021/01/30 07:35:13;;;;;;;2.50;1.85;;;6.80;99.80;;;;;;5024150;28;20228;-80
2021/01/30 07:37:53;;;;;;;1.83;1.73;;;6.60;99.80;;;;;;5003267;28;20227;-83
2021/01/30 07:40:23;;;;;;;3.20;2.17;;;6.50;99.80;;;;;;5017292;28;20809;-82
2021/01/30 07:42:59;;;;;;;5.35;3.05;;;6.40;99.80;;;;;;5006160;28;20255;-83
2021/01/30 07:45:30;;;;;;;2.42;2.22;;;6.20;99.80;;;;;;5007889;28;20230;-82
2021/01/30 07:48:09;;;;;;;3.15;2.40;;;5.90;99.80;;;;;;5007443;28;20242;-80
2021/01/30 07:50:39;;;;;;;5.22;3.38;;;5.50;99.80;;;;;;5002894;28;20258;-83
2021/01/30 07:53:10;;;;;;;3.10;2.80;;;5.20;99.80;;;;;;5016416;28;20231;-80
2021/01/30 07:55:37;;;;;;;4.05;3.60;;;5.10;99.80;;;;;;4998166;28;20753;-81
2021/01/30 07:58:29;;;;;;;5.85;3.40;;;5.00;99.80;;;;;;5005561;28;20249;-80
2021/01/30 08:01:10;;;;;;;6.40;4.25;;;5.00;99.80;;;;;;5033254;28;20234;-80
2021/01/30 08:04:04;;;;;;;3.45;2.90;;;4.90;99.80;;;;;;5030754;28;20235;-82
2021/01/30 08:06:40;;;;;;;5.53;4.13;;;4.90;99.80;;;;;;5028134;28;20411;-81
2021/01/30 08:09:20;;;;;;;4.40;3.45;;;4.80;99.80;;;;;;5005763;28;20225;-82
2021/01/30 08:11:53;;;;;;;2.97;2.50;;;4.60;99.80;;;;;;5008370;28;20238;-82
2021/01/30 08:14:43;;;;;;;3.70;3.05;;;4.40;99.80;;;;;;5014678;28;20225;-83
2021/01/30 08:17:30;;;;;;;3.30;3.00;;;4.40;99.80;;;;;;5024169;28;20229;-81
2021/01/30 08:20:04;;;;;;;6.18;4.00;;;4.20;99.80;;;;;;5021353;28;20234;-79
2021/01/30 08:22:38;;;;;;;6.78;4.72;;;4.10;99.80;;;;;;5002001;28;20743;-81
2021/01/30 08:25:11;;;;;;;7.75;4.88;;;3.90;99.80;;;;;;4996731;28;20234;-81
2021/01/30 08:27:41;;;;;;;7.72;5.45;;;3.70;99.80;;;;;;4996368;28;20226;-82
2021/01/30 08:30:17;;;;;;;9.13;5.80;;;3.60;99.80;;;;;;5013868;28;20297;-82
2021/01/30 08:32:55;;;;;;;8.77;5.63;;;3.60;99.80;;;;;;5024961;28;20230;-81
2021/01/30 08:35:55;;;;;;;9.75;6.20;;;3.30;99.80;;;;;;5027233;28;20234;-82
2021/01/30 08:38:39;;;;;;;15.57;7.15;;;3.30;99.80;;;;;;5022184;28;20218;-82
2021/01/30 08:41:43;;;;;;;13.32;8.05;;;3.20;99.80;;;;;;5004324;28;20236;-82
2021/01/30 08:44:29;;;;;;;11.55;7.03;;;3.10;99.80;;;;;;5002504;28;20281;-82
2021/01/30 08:47:09;;;;;;;12.77;7.07;;;3.10;99.80;;;;;;5040238;28;20231;-81
2021/01/30 08:49:37;;;;;;;12.43;7.22;;;2.80;99.80;;;;;;5016682;28;20240;-82
2021/01/30 08:52:48;;;;;;;17.50;8.10;;;2.80;99.80;;;;;;5024767;28;20229;-81
2021/01/30 08:55:48;;;;;;;19.77;9.63;;;2.80;99.80;;;;;;4998888;28;20253;-82
2021/01/30 08:58:47;;;;;;;11.93;7.63;;;2.80;99.80;;;;;;5018527;28;20221;-81
2021/01/30 09:01:46;;;;;;;14.90;8.80;;;2.70;99.80;;;;;;5014300;28;20317;-83
2021/01/30 09:04:47;;;;;;;18.38;9.60;;;2.60;99.80;;;;;;5029460;28;20232;-82
2021/01/30 09:07:38;;;;;;;16.52;8.20;;;2.50;99.80;;;;;;5029555;28;20288;-82
2021/01/30 09:10:33;;;;;;;14.30;8.27;;;2.50;99.80;;;;;;5018630;28;20569;-80
2021/01/30 09:13:06;;;;;;;12.68;8.25;;;2.60;99.80;;;;;;5005085;28;20232;-80
2021/01/30 09:16:08;;;;;;;14.32;8.32;;;2.60;99.80;;;;;;5027163;28;20241;-81
2021/01/30 09:18:51;;;;;;;14.70;8.57;;;2.60;99.80;;;;;;5024384;28;20247;-78
2021/01/30 09:21:29;;;;;;;11.98;8.52;;;2.50;99.80;;;;;;5011872;28;20226;-81
2021/01/30 09:24:23;;;;;;;15.30;8.93;;;2.40;99.80;;;;;;5003515;28;20235;-82
2021/01/30 09:26:59;;;;;;;13.32;9.15;;;2.30;99.80;;;;;;4997718;28;20239;-82
2021/01/30 09:29:39;;;;;;;16.30;9.52;;;2.30;99.80;;;;;;5037502;28;20221;-82
2021/01/30 09:32:07;;;;;;;16.05;9.13;;;2.30;99.80;;;;;;5025372;28;20234;-81
2021/01/30 09:34:46;;;;;;;18.33;10.10;;;2.30;99.80;;;;;;5027128;28;20222;-80
2021/01/30 09:37:28;;;;;;;15.57;9.00;;;2.20;99.80;;;;;;5029409;28;20321;-82
2021/01/30 09:39:57;;;;;;;17.05;10.00;;;2.30;99.80;;;;;;5025396;28;20316;-82
2021/01/30 09:42:25;;;;;;;17.00;9.45;;;2.30;99.80;;;;;;5025989;28;20230;-81
2021/01/30 09:45:10;;;;;;;16.88;9.32;;;2.40;99.80;;;;;;5026693;28;20226;-82
2021/01/30 09:47:40;;;;;;;19.65;10.60;;;2.50;99.80;;;;;;5025626;28;20238;-82
2021/01/30 09:50:14;;;;;;;14.48;8.90;;;2.50;99.80;;;;;;5029340;28;20225;-82
2021/01/30 09:52:50;;;;;;;15.68;10.15;;;2.60;99.80;;;;;;5029141;28;20945;-84
2021/01/30 09:55:20;;;;;;;18.27;11.10;;;2.50;99.80;;;;;;5030267;28;20258;-80
2021/01/30 09:57:48;;;;;;;15.88;10.43;;;2.40;99.80;;;;;;5025467;28;20316;-82
2021/01/30 10:00:18;;;;;;;15.93;9.45;;;2.30;99.80;;;;;;5026404;28;20230;-82
2021/01/30 10:02:45;;;;;;;18.05;10.93;;;2.10;99.80;;;;;;5024189;28;20254;-82
2021/01/30 10:05:16;;;;;;;18.42;10.85;;;2.00;99.80;;;;;;5027167;28;20254;-81
2021/01/30 10:07:44;;;;;;;17.33;11.00;;;2.00;99.80;;;;;;5021247;28;20776;-83
2021/01/30 10:10:27;;;;;;;18.10;10.30;;;2.20;99.80;;;;;;5028513;28;20233;-81
2021/01/30 10:12:57;;;;;;;17.95;10.77;;;2.10;99.80;;;;;;5028862;28;20716;-81
2021/01/30 10:15:32;;;;;;;17.55;10.85;;;2.20;99.80;;;;;;5029429;28;20311;-81
2021/01/30 10:18:06;;;;;;;18.90;10.90;;;2.20;99.80;;;;;;5030808;28;20232;-81
2021/01/30 10:20:43;;;;;;;19.83;11.52;;;2.20;99.80;;;;;;5026848;28;20230;-81
2021/01/30 10:23:11;;;;;;;17.77;10.45;;;2.30;99.80;;;;;;5026765;28;20225;-81
2021/01/30 10:25:39;;;;;;;18.15;11.55;;;2.30;99.80;;;;;;5030645;28;20256;-81
2021/01/30 10:28:09;;;;;;;19.10;11.70;;;2.30;99.80;;;;;;5026251;28;20341;-80
2021/01/30 10:30:37;;;;;;;21.38;12.10;;;2.30;99.80;;;;;;5026066;28;20984;-81
2021/01/30 10:33:08;;;;;;;16.17;10.88;;;2.20;99.80;;;;;;5029054;28;20269;-81
2021/01/30 10:35:43;;;;;;;22.85;10.60;;;2.10;99.80;;;;;;5039480;28;20305;-82
2021/01/30 10:38:17;;;;;;;18.02;10.95;;;2.10;99.80;;;;;;5039523;28;20520;-84
2021/01/30 10:40:49;;;;;;;17.95;10.52;;;2.20;99.80;;;;;;5034040;28;20238;-85
2021/01/30 10:43:22;;;;;;;23.10;12.07;;;2.20;99.80;;;;;;5031717;28;20249;-83
2021/01/30 10:45:54;;;;;;;17.90;11.00;;;2.20;99.80;;;;;;5037715;28;20305;-83
2021/01/30 10:48:23;;;;;;;23.88;12.32;;;2.30;99.80;;;;;;5041123;28;20329;-86
2021/01/30 10:50:52;;;;;;;19.10;11.38;;;2.40;99.80;;;;;;5040374;28;20241;-82
2021/01/30 10:53:24;;;;;;;18.05;11.05;;;2.30;99.80;;;;;;5024853;28;20233;-84
2021/01/30 10:55:52;;;;;;;17.98;10.25;;;2.20;99.80;;;;;;5032839;28;20244;-83
2021/01/30 10:58:30;;;;;;;17.38;12.27;;;2.20;99.80;;;;;;5026669;28;20289;-83
2021/01/30 11:01:00;;;;;;;16.15;10.60;;;2.20;99.80;;;;;;5034517;28;20229;-83
2021/01/30 11:03:39;;;;;;;20.42;10.95;;;2.30;99.80;;;;;;5025433;28;20829;-82
2021/01/30 11:06:15;;;;;;;18.77;11.02;;;2.40;99.80;;;;;;5024435;28;20227;-82
2021/01/30 11:08:43;;;;;;;18.35;10.95;;;2.40;99.80;;;;;;5022439;28;20902;-82
2021/01/30 11:11:13;;;;;;;17.75;10.93;;;2.50;99.80;;;;;;5007975;28;20721;-81
2021/01/30 11:13:40;;;;;;;15.63;10.85;;;2.50;99.80;;;;;;5002703;28;20229;-81
2021/01/30 11:16:14;;;;;;;18.85;11.27;;;2.60;99.80;;;;;;5031390;28;20229;-83
2021/01/30 11:18:47;;;;;;;17.10;10.60;;;2.50;99.80;;;;;;5032561;28;20229;-82
2021/01/30 11:21:32;;;;;;;19.42;11.90;;;2.50;99.80;;;;;;5017569;28;20727;-82
2021/01/30 11:24:14;;;;;;;18.17;12.07;;;2.50;99.80;;;;;;5009486;28;20332;-82
2021/01/30 11:26:43;;;;;;;16.05;10.32;;;2.50;99.80;;;;;;5018396;28;20302;-82
2021/01/30 11:29:37;;;;;;;16.27;9.85;;;2.60;99.80;;;;;;4993962;28;20237;-82
2021/01/30 11:32:07;;;;;;;15.55;10.55;;;2.60;99.80;;;;;;5027200;28;20772;-82
2021/01/30 11:34:35;;;;;;;14.55;9.85;;;2.60;99.80;;;;;;5011582;28;20232;-83
2021/01/30 11:37:05;;;;;;;16.70;11.18;;;2.60;99.80;;;;;;5026924;28;20743;-86
2021/01/30 11:39:34;;;;;;;15.68;10.75;;;2.60;99.80;;;;;;4997793;28;20317;-85
2021/01/30 11:42:04;;;;;;;15.98;10.50;;;2.60;99.80;;;;;;5010429;28;20769;-82
2021/01/30 11:44:32;;;;;;;13.50;9.52;;;2.70;99.80;;;;;;5011578;28;20241;-82
2021/01/30 11:46:59;;;;;;;16.88;10.15;;;2.70;99.80;;;;;;5029468;28;20237;-81
2021/01/30 11:49:26;;;;;;;13.95;9.15;;;2.90;99.80;;;;;;5031085;28;20227;-82
2021/01/30 11:51:54;;;;;;;11.82;8.13;;;3.10;99.80;;;;;;5012344;28;20722;-81
2021/01/30 11:54:22;;;;;;;10.90;8.02;;;3.30;99.80;;;;;;5004331;28;20855;-81
2021/01/30 11:56:49;;;;;;;10.15;8.05;;;3.40;99.80;;;;;;5000050;28;20235;-81
2021/01/30 11:59:16;;;;;;;9.45;7.43;;;3.50;99.80;;;;;;4999409;28;20324;-81
2021/01/30 12:01:43;;;;;;;6.13;5.40;;;3.70;99.80;;;;;;5036056;28;20230;-81
2021/01/30 12:04:11;;;;;;;6.53;5.63;;;3.80;99.80;;;;;;5004931;28;20225;-82
2021/01/30 12:06:39;;;;;;;6.65;5.72;;;3.90;99.80;;;;;;5010838;28;20723;-82
2021/01/30 12:09:06;;;;;;;7.40;6.20;;;3.80;99.80;;;;;;5022287;28;20233;-82
2021/01/30 12:11:33;;;;;;;6.25;5.63;;;3.70;99.80;;;;;;5007333;28;20318;-82
2021/01/30 12:14:00;;;;;;;8.23;6.53;;;3.70;99.80;;;;;;5005249;28;20611;-83
2021/01/30 12:16:28;;;;;;;8.13;6.57;;;3.70;99.80;;;;;;5031993;28;20313;-84
2021/01/30 12:18:56;;;;;;;7.05;6.35;;;3.80;99.80;;;;;;5018304;28;20317;-84
2021/01/30 12:21:23;;;;;;;9.63;6.68;;;3.80;99.80;;;;;;5016640;28;20242;-85
2021/01/30 12:23:50;;;;;;;9.05;7.32;;;3.80;99.80;;;;;;5003900;28;20259;-85
2021/01/30 12:26:22;;;;;;;8.57;6.88;;;3.80;99.80;;;;;;5003604;28;20227;-84
2021/01/30 12:28:51;;;;;;;9.02;7.25;;;3.80;99.80;;;;;;4992783;28;20233;-83
2021/01/30 12:31:18;;;;;;;9.68;7.20;;;3.90;99.80;;;;;;5013381;28;20231;-82
2021/01/30 12:33:45;;;;;;;9.13;6.95;;;3.90;99.80;;;;;;5022906;28;20244;-83
2021/01/30 12:36:12;;;;;;;9.30;6.35;;;3.80;99.80;;;;;;5006700;28;20237;-82
2021/01/30 12:38:39;;;;;;;8.65;6.75;;;3.80;99.80;;;;;;5006979;28;20229;-82
2021/01/30 12:41:08;;;;;;;8.43;5.97;;;3.70;99.80;;;;;;5017332;28;20240;-83
2021/01/30 12:43:35;;;;;;;9.98;6.35;;;3.70;99.80;;;;;;5008247;28;20304;-82
2021/01/30 12:46:03;;;;;;;6.60;5.90;;;3.70;99.80;;;;;;5016378;28;20226;-82
2021/01/30 12:48:30;;;;;;;6.20;5.65;;;3.70;99.80;;;;;;5030383;28;20230;-82
2021/01/30 12:50:59;;;;;;;8.23;6.88;;;3.70;99.80;;;;;;5024652;28;20711;-81
2021/01/30 12:53:26;;;;;;;5.60;5.10;;;3.60;99.80;;;;;;5010203;28;20229;-81
2021/01/30 12:55:54;;;;;;;6.63;6.00;;;3.60;99.80;;;;;;5010585;28;20280;-82
2021/01/30 12:58:23;;;;;;;8.90;6.40;;;3.50;99.80;;;;;;4992026;28;20225;-82
2021/01/30 13:00:52;;;;;;;9.15;7.43;;;3.50;99.80;;;;;;5018579;28;20235;-81
2021/01/30 13:03:20;;;;;;;8.45;7.13;;;3.40;99.80;;;;;;5022775;28;20224;-83
2021/01/30 13:05:47;;;;;;;6.22;5.63;;;3.30;99.80;;;;;;5002217;28;21338;-81
2021/01/30 13:08:15;;;;;;;8.85;6.35;;;3.20;99.80;;;;;;4988064;28;20224;-84
2021/01/30 13:10:42;;;;;;;8.30;6.55;;;3.20;99.80;;;;;;5009929;28;20229;-83
2021/01/30 13:13:09;;;;;;;7.20;5.60;;;3.10;99.80;;;;;;5017521;28;20256;-83
2021/01/30 13:15:37;;;;;;;7.47;6.15;;;3.10;99.80;;;;;;5028054;28;20236;-82
2021/01/30 13:18:06;;;;;;;7.72;6.35;;;3.20;99.80;;;;;;5025726;28;20225;-81
2021/01/30 13:20:34;;;;;;;6.97;6.13;;;3.20;99.80;;;;;;5027200;28;20314;-82
2021/01/30 13:23:02;;;;;;;6.65;5.85;;;3.20;99.80;;;;;;5026456;28;20221;-82